Time;durP1;ratioP1;P1;durP2;ratioP2;P2;SDS_P1;SDS_P2;PMS_P1;PMS_P2;Temp;Humidity;BMP_temperature;BMP_pressure;BME280_temperature;BME280_humidity;BME280_pressure;Samples;Min_cycle;Max_cycle;Signal;HPM_P1;HPM_P2
2021/11/04 00:02:06;;;;;;;;;13.00;12.50;;;;;8.87;73.59;99918.06;5075969;28;46352;-78
2021/11/04 00:04:32;;;;;;;;;15.75;15.00;;;;;8.88;73.53;99913.66;5076024;28;46131;-77
2021/11/04 00:06:57;;;;;;;;;12.50;12.00;;;;;8.85;73.78;99905.09;5075970;28;45677;-77
2021/11/04 00:09:23;;;;;;;;;14.25;14.00;;;;;8.85;73.86;99906.91;5076101;28;45517;-77
2021/11/04 00:11:49;;;;;;;;;10.25;10.25;;;;;8.85;73.59;99906.91;5075398;28;46375;-78
2021/11/04 00:14:14;;;;;;;;;15.75;15.00;;;;;8.84;73.73;99910.47;5075921;28;46212;-79
2021/11/04 00:20:41;;;;;;;;;16.25;14.00;;;;;8.85;73.84;99906.91;5074589;28;45680;-77
2021/11/04 00:23:06;;;;;;;;;16.25;15.00;;;;;8.82;73.66;99888.84;5081179;28;45597;-77
2021/11/04 00:25:32;;;;;;;;;15.75;15.00;;;;;8.89;73.58;99899.66;5082695;28;46849;-78
2021/11/04 00:27:57;;;;;;;;;20.00;16.75;;;;;8.87;73.86;99891.09;5083312;28;45683;-77
2021/11/04 00:30:22;;;;;;;;;14.25;14.00;;;;;8.92;73.50;99897.63;5082301;28;45598;-78
2021/11/04 00:32:52;;;;;;;;;13.00;12.75;;;;;8.82;73.33;99875.78;5075815;28;45590;-76
2021/11/04 00:35:18;;;;;;;;;16.75;14.25;;;;;8.91;73.68;99895.97;5057311;28;47663;-77
2021/11/04 00:37:44;;;;;;;;;15.50;15.00;;;;;8.78;73.48;99901.31;5075622;28;45670;-78
2021/11/04 00:40:12;;;;;;;;;19.50;18.25;;;;;8.74;73.44;99891.22;5075349;28;45681;-77
2021/11/04 00:42:38;;;;;;;;;15.75;15.25;;;;;8.59;73.74;99884.50;5075045;28;47270;-77
2021/11/04 00:45:04;;;;;;;;;18.00;16.00;;;;;8.66;73.74;99912.66;5075262;28;46012;-78
2021/11/04 00:47:30;;;;;;;;;19.25;17.00;;;;;8.43;73.77;99895.25;5074986;28;45564;-77
2021/11/04 00:49:55;;;;;;;;;17.00;11.75;;;;;8.53;74.08;99921.53;5075184;28;45495;-78
2021/11/04 00:52:21;;;;;;;;;21.25;16.25;;;;;8.45;74.13;99910.81;5075244;28;46624;-78
2021/11/04 00:54:46;;;;;;;;;18.00;16.50;;;;;8.45;74.33;99913.41;5075038;28;46489;-77
2021/11/04 00:57:11;;;;;;;;;15.75;14.75;;;;;8.41;74.28;99911.03;5074983;28;45663;-77
2021/11/04 00:59:37;;;;;;;;;19.50;16.00;;;;;8.46;74.34;99923.75;5074850;28;45717;-77
2021/11/04 01:05:24;;;;;;;;;16.00;14.00;;;;;8.25;74.65;99894.81;5074855;28;46165;-77
2021/11/04 01:07:49;;;;;;;;;17.50;17.25;;;;;8.42;74.71;99925.72;5074777;28;45648;-78
2021/11/04 01:10:16;;;;;;;;;18.25;16.50;;;;;8.42;74.61;99919.72;5075163;28;45917;-78
2021/11/04 01:12:42;;;;;;;;;16.50;15.00;;;;;8.41;74.58;99918.03;5074641;28;46811;-77
2021/11/04 01:15:07;;;;;;;;;19.50;17.50;;;;;8.38;74.68;99915.63;5074516;28;46057;-78
2021/11/04 01:20:54;;;;;;;;;22.25;18.25;;;;;8.35;74.83;99913.25;5073068;28;45756;-77
2021/11/04 01:23:20;;;;;;;;;14.00;11.00;;;;;8.28;74.73;99901.56;5074529;28;47502;-79
2021/11/04 01:25:46;;;;;;;;;17.00;15.00;;;;;8.30;74.96;99913.59;5074404;28;46167;-77
2021/11/04 01:28:11;;;;;;;;;19.75;17.75;;;;;8.23;75.07;99901.06;5074624;28;45899;-77
2021/11/04 01:30:40;;;;;;;;;18.50;17.75;;;;;8.28;75.24;99912.00;5074601;28;45895;-78
2021/11/04 01:33:06;;;;;;;;;16.75;15.00;;;;;8.24;75.09;99906.19;5056239;28;46508;-77
2021/11/04 01:35:31;;;;;;;;;18.75;17.50;;;;;8.24;75.03;99921.00;5074806;28;45848;-76
2021/11/04 01:37:58;;;;;;;;;19.75;15.25;;;;;8.21;75.32;99922.03;5074750;28;45585;-78
2021/11/04 01:40:24;;;;;;;;;19.00;18.25;;;;;8.14;75.37;99913.00;5075038;28;45706;-78
2021/11/04 01:42:49;;;;;;;;;19.25;18.00;;;;;8.18;75.48;99922.28;5074411;28;46434;-77
2021/11/04 01:45:15;;;;;;;;;19.00;17.50;;;;;8.18;75.38;99926.66;5074464;28;45996;-78
2021/11/04 01:51:02;;;;;;;;;21.00;18.00;;;;;8.17;75.69;99923.22;5074480;28;45613;-77
2021/11/04 01:53:27;;;;;;;;;9.75;9.75;;;;;8.16;75.51;99920.72;5075471;28;45556;-77
2021/11/04 01:55:53;;;;;;;;;21.25;18.50;;;;;8.13;75.69;99913.13;5080841;28;46094;-76
2021/11/04 01:58:18;;;;;;;;;17.25;15.75;;;;;8.01;75.78;99879.13;5081662;28;45585;-77
2021/11/04 02:00:44;;;;;;;;;18.00;15.50;;;;;8.19;75.85;99907.47;5081980;28;45908;-77
2021/11/04 02:03:24;;;;;;;;;21.25;18.75;;;;;8.22;75.48;99918.50;5078757;28;45674;-77
2021/11/04 02:06:24;;;;;;;;;22.00;19.75;;;;;8.21;75.38;99914.22;5074265;28;47425;-77
2021/11/04 02:09:10;;;;;;;;;24.00;19.00;;;;;8.17;75.58;99912.78;5074355;28;45887;-77
2021/11/04 02:11:52;;;;;;;;;17.75;15.50;;;;;8.15;75.79;99917.25;5074594;28;45796;-78
2021/11/04 02:14:27;;;;;;;;;18.00;17.00;;;;;8.15;75.80;99927.69;5075530;28;45673;-77
2021/11/04 02:16:56;;;;;;;;;22.50;20.50;;;;;8.10;75.74;99921.97;5078040;28;46708;-78
2021/11/04 02:19:45;;;;;;;;;22.00;17.75;;;;;8.06;75.69;99927.53;5077886;28;45609;-77
2021/11/04 02:22:34;;;;;;;;;21.75;17.25;;;;;8.01;76.04;99915.66;5078009;28;45479;-76
2021/11/04 02:25:17;;;;;;;;;22.25;19.00;;;;;8.01;76.07;99920.03;4995329;28;46869;-76
2021/11/04 02:27:48;;;;;;;;;17.75;17.00;;;;;7.81;75.89;99891.94;4995434;28;46227;-78
2021/11/04 02:30:15;;;;;;;;;18.75;17.00;;;;;7.77;75.92;99900.94;4995522;28;45851;-78
2021/11/04 02:32:41;;;;;;;;;14.50;14.50;;;;;7.91;76.16;99938.13;4995712;28;45792;-78
2021/11/04 02:35:08;;;;;;;;;20.50;17.75;;;;;7.94;76.09;99940.50;4995390;28;46412;-77
2021/11/04 02:37:34;;;;;;;;;22.00;18.25;;;;;7.80;76.12;99918.97;4995402;28;46683;-77
2021/11/04 02:40:00;;;;;;;;;22.50;18.50;;;;;7.90;76.23;99931.25;4995259;28;45870;-77
2021/11/04 02:42:27;;;;;;;;;14.50;14.50;;;;;7.89;76.19;99931.34;4995364;28;45657;-75
2021/11/04 02:44:53;;;;;;;;;21.75;19.25;;;;;7.85;76.03;99930.72;4995323;28;45632;-78
2021/11/04 02:47:19;;;;;;;;;17.25;12.75;;;;;7.79;76.14;99925.09;4995202;28;46150;-77
2021/11/04 02:49:48;;;;;;;;;23.00;21.50;;;;;7.78;76.19;99939.91;4994838;28;45527;-79
2021/11/04 02:52:15;;;;;;;;;18.75;18.00;;;;;7.77;76.39;99940.06;4995294;28;45737;-76
2021/11/04 02:54:51;;;;;;;;;19.50;17.00;;;;;7.74;76.30;99948.06;4994861;28;46519;-78
2021/11/04 02:57:17;;;;;;;;;18.00;17.50;;;;;7.71;76.55;99945.69;4995308;28;45899;-77
2021/11/04 02:59:42;;;;;;;;;18.75;17.25;;;;;7.70;76.66;99942.25;4995190;28;45735;-77
2021/11/04 03:02:07;;;;;;;;;20.75;17.50;;;;;7.70;76.74;99944.00;5039305;28;45616;-77
2021/11/04 03:04:33;;;;;;;;;20.75;17.50;;;;;7.57;76.75;99926.63;5077279;28;45494;-77
2021/11/04 03:06:58;;;;;;;;;18.25;17.25;;;;;7.64;76.95;99941.84;5077396;28;46032;-77
2021/11/04 03:09:23;;;;;;;;;25.00;21.00;;;;;7.67;77.05;99947.66;5077198;28;45641;-78
2021/11/04 03:11:49;;;;;;;;;23.50;21.00;;;;;7.73;76.93;99944.63;5077214;28;45572;-77
2021/11/04 03:14:15;;;;;;;;;20.75;18.00;;;;;7.77;76.85;99946.09;5077007;28;45709;-77
2021/11/04 03:16:45;;;;;;;;;19.50;17.25;;;;;7.76;76.48;99941.81;5076593;28;46192;-77
2021/11/04 03:19:12;;;;;;;;;22.50;20.00;;;;;7.82;76.74;99951.81;5076796;28;45925;-77
2021/11/04 03:21:47;;;;;;;;;24.00;21.75;;;;;7.75;76.50;99941.91;5076529;28;45553;-77
2021/11/04 03:24:18;;;;;;;;;21.75;21.25;;;;;7.84;76.53;99942.09;5077000;28;46717;-77
2021/11/04 03:26:45;;;;;;;;;22.25;19.00;;;;;7.80;76.51;99945.03;5077815;28;46397;-77
2021/11/04 03:29:13;;;;;;;;;20.25;18.00;;;;;7.76;76.38;99948.81;5078423;28;45749;-77
2021/11/04 03:38:07;;;;;;;;;25.00;21.25;;;;;7.72;76.72;99952.56;5076531;28;45672;-77
2021/11/04 03:40:34;;;;;;;;;17.25;17.25;;;;;7.80;76.56;99956.31;5076348;28;45515;-77
2021/11/04 03:43:00;;;;;;;;;21.00;18.00;;;;;7.75;76.51;99947.97;5076824;28;45647;-76
2021/11/04 03:45:27;;;;;;;;;16.00;14.00;;;;;7.85;76.43;99961.19;5076652;28;45730;-78
2021/11/04 03:47:53;;;;;;;;;22.00;19.50;;;;;7.85;76.66;99956.81;5076422;28;46298;-77
2021/11/04 03:50:19;;;;;;;;;21.75;19.00;;;;;7.94;76.55;99963.13;5076330;28;45845;-78
2021/11/04 03:52:44;;;;;;;;;22.25;18.50;;;;;8.04;76.39;99965.94;5058024;28;45516;-77
2021/11/04 03:55:12;;;;;;;;;21.75;19.50;;;;;8.03;76.07;99967.72;5076313;28;46286;-77
2021/11/04 03:57:42;;;;;;;;;19.25;18.25;;;;;8.01;76.01;99961.78;5076043;28;47575;-77
2021/11/04 04:00:12;;;;;;;;;20.50;18.00;;;;;8.07;76.02;99965.72;5076077;28;45598;-78
2021/11/04 04:02:38;;;;;;;;;19.00;19.00;;;;;7.90;76.13;99938.22;5076370;28;45722;-78
2021/11/04 04:05:04;;;;;;;;;20.75;20.50;;;;;8.13;76.15;99978.34;5075061;28;45813;-78
2021/11/04 04:07:31;;;;;;;;;19.25;18.00;;;;;8.08;76.28;99973.44;5076103;28;46647;-78
2021/11/04 04:09:58;;;;;;;;;19.75;18.25;;;;;8.11;76.41;99977.59;5076069;28;45980;-77
2021/11/04 04:12:24;;;;;;;;;21.00;19.25;;;;;8.10;76.43;99974.16;5076489;28;45645;-77
2021/11/04 04:14:50;;;;;;;;;20.50;19.00;;;;;8.10;76.75;99970.75;5076273;28;45651;-77
2021/11/04 04:17:17;;;;;;;;;21.25;19.00;;;;;8.12;76.82;99980.09;5076321;28;45640;-78
2021/11/04 04:19:42;;;;;;;;;20.00;18.75;;;;;8.16;76.39;99981.53;5075783;28;45937;-77
2021/11/04 04:22:07;;;;;;;;;19.75;17.50;;;;;8.19;76.74;99983.97;5076250;28;45682;-75
2021/11/04 04:24:33;;;;;;;;;23.50;19.50;;;;;8.17;76.75;99982.38;5057370;28;47594;-77
2021/11/04 04:27:00;;;;;;;;;22.00;20.25;;;;;8.21;76.76;99992.50;5075850;28;45560;-78
2021/11/04 04:29:28;;;;;;;;;20.00;18.25;;;;;8.16;76.77;99980.72;5075951;28;45657;-78
2021/11/04 04:31:54;;;;;;;;;19.75;17.25;;;;;8.19;76.80;100001.38;5076248;28;45807;-78
2021/11/04 04:37:41;;;;;;;;;19.25;17.75;;;;;8.20;77.53;99988.25;5074481;28;46250;-76
2021/11/04 04:40:07;;;;;;;;;17.50;17.25;;;;;8.17;77.60;99987.59;5075760;28;45622;-77
2021/11/04 04:42:32;;;;;;;;;20.25;18.50;;;;;8.21;77.92;100009.91;5075624;28;45617;-76
2021/11/04 04:44:58;;;;;;;;;22.00;18.50;;;;;8.20;77.84;100011.72;5075675;28;45563;-77
2021/11/04 04:47:23;;;;;;;;;19.00;18.00;;;;;8.15;78.02;100005.97;5075627;28;45817;-76
2021/11/04 04:53:10;;;;;;;;;20.25;18.00;;;;;8.22;78.41;100017.66;5075421;28;45560;-76
2021/11/04 04:55:36;;;;;;;;;14.75;14.25;;;;;8.22;78.42;100016.81;5081089;28;45523;-78
2021/11/04 04:58:02;;;;;;;;;17.00;15.00;;;;;7.96;78.78;99984.75;5082625;28;45701;-78
2021/11/04 05:00:28;;;;;;;;;17.50;14.50;;;;;8.14;78.95;100025.19;5082601;28;45689;-76
2021/11/04 05:02:54;;;;;;;;;17.50;14.00;;;;;8.10;79.04;100021.13;5080504;28;45563;-77
2021/11/04 05:05:20;;;;;;;;;19.75;18.00;;;;;8.00;79.08;100000.06;5075556;28;45490;-76
2021/11/04 05:07:45;;;;;;;;;22.25;19.50;;;;;8.01;79.14;100004.34;5075502;28;46072;-78
2021/11/04 05:10:21;;;;;;;;;22.25;20.00;;;;;8.07;79.32;100015.28;5126687;27;46229;-77
2021/11/04 05:12:46;;;;;;;;;16.00;14.25;;;;;8.05;79.32;100007.56;5107664;27;46072;-77
2021/11/04 05:15:12;;;;;;;;;14.75;14.25;;;;;8.12;79.46;100013.19;5107773;27;47170;-78
2021/11/04 05:17:38;;;;;;;;;16.25;15.00;;;;;8.02;79.34;100000.81;5107890;27;47440;-78
2021/11/04 05:20:05;;;;;;;;;23.25;19.00;;;;;8.07;79.31;100018.72;5107763;27;46194;-77
2021/11/04 05:22:32;;;;;;;;;19.75;17.50;;;;;8.05;79.52;100010.16;5101339;27;45707;-78
2021/11/04 05:24:58;;;;;;;;;19.50;17.75;;;;;7.93;79.55;100014.50;5109403;27;45888;-77
2021/11/04 05:27:25;;;;;;;;;23.25;18.00;;;;;7.83;80.33;99994.34;5108658;27;47276;-78
2021/11/04 05:29:51;;;;;;;;;21.50;18.00;;;;;7.94;79.61;100008.31;5106243;27;46991;-78
2021/11/04 05:32:18;;;;;;;;;18.50;17.50;;;;;7.96;79.79;100027.31;5109067;27;45993;-77
2021/11/04 05:34:44;;;;;;;;;18.75;15.25;;;;;7.89;80.04;100005.19;5108346;27;46652;-77
2021/11/04 05:37:10;;;;;;;;;19.00;17.50;;;;;8.00;80.08;100027.91;5107944;27;47583;-77
2021/11/04 05:39:37;;;;;;;;;15.25;15.00;;;;;8.01;79.96;100034.81;5107295;27;45788;-77
2021/11/04 05:42:04;;;;;;;;;24.00;19.00;;;;;8.09;80.03;100042.13;5098099;27;46072;-77
2021/11/04 05:44:29;;;;;;;;;20.75;17.50;;;;;8.04;80.15;100018.13;5106660;27;45919;-77
2021/11/04 05:46:56;;;;;;;;;17.75;14.75;;;;;8.07;80.19;100026.56;5109076;27;46664;-76
2021/11/04 05:49:21;;;;;;;;;17.00;15.25;;;;;8.01;80.27;100017.38;5103440;27;46196;-76
2021/11/04 05:51:47;;;;;;;;;19.00;16.25;;;;;8.10;80.56;100035.97;5102096;27;45954;-78
2021/11/04 05:54:12;;;;;;;;;17.50;15.50;;;;;8.10;80.61;100039.38;5107177;27;45843;-77
2021/11/04 05:56:38;;;;;;;;;17.50;14.50;;;;;8.06;80.77;100037.09;5108912;27;46683;-78
2021/11/04 05:59:03;;;;;;;;;15.00;15.00;;;;;8.06;80.86;100043.16;5107472;27;45751;-77
2021/11/04 06:01:29;;;;;;;;;17.00;15.75;;;;;8.02;80.99;100047.75;5105764;27;45779;-77
2021/11/04 06:03:54;;;;;;;;;17.25;15.50;;;;;8.02;81.05;100041.69;5108927;27;46145;-77
2021/11/04 06:06:20;;;;;;;;;14.25;13.75;;;;;8.12;81.04;100060.16;5108577;27;45751;-78
2021/11/04 06:08:45;;;;;;;;;21.75;15.25;;;;;8.11;81.19;100050.66;5076811;27;46271;-77
2021/11/04 06:11:11;;;;;;;;;18.00;16.00;;;;;8.03;81.49;100043.38;5021918;28;45460;-77
2021/11/04 06:13:36;;;;;;;;;17.25;14.25;;;;;8.05;81.99;100049.28;5022385;28;46136;-78
2021/11/04 06:16:02;;;;;;;;;19.50;14.00;;;;;8.08;82.06;100053.47;5014728;28;46262;-78
2021/11/04 06:18:27;;;;;;;;;13.00;10.00;;;;;8.04;82.03;100047.66;5022209;27;46157;-78
2021/11/04 06:20:52;;;;;;;;;17.25;14.00;;;;;8.06;82.03;100057.97;5008349;28;45790;-77
2021/11/04 06:23:18;;;;;;;;;17.00;16.00;;;;;8.06;82.15;100068.41;5007222;28;47271;-77
2021/11/04 06:25:43;;;;;;;;;15.00;13.75;;;;;8.04;81.96;100059.84;5014879;28;45618;-77
2021/11/04 06:28:09;;;;;;;;;15.25;10.75;;;;;8.11;82.19;100066.28;5014144;28;46289;-77
2021/11/04 06:30:34;;;;;;;;;13.75;13.50;;;;;8.09;82.11;100069.03;5006267;28;45826;-77
2021/11/04 06:33:00;;;;;;;;;19.25;14.50;;;;;8.15;82.24;100070.38;5001083;28;45831;-76
2021/11/04 06:35:25;;;;;;;;;18.00;16.00;;;;;8.10;82.45;100065.47;5010563;28;46405;-77
2021/11/04 06:37:51;;;;;;;;;15.75;14.25;;;;;8.17;82.28;100077.16;5010560;28;46140;-77
2021/11/04 06:40:17;;;;;;;;;16.00;15.50;;;;;8.15;82.23;100067.78;5009359;28;46067;-78
2021/11/04 06:42:42;;;;;;;;;10.50;8.50;;;;;8.16;82.46;100070.25;5011397;28;45981;-77
2021/11/04 06:45:08;;;;;;;;;10.25;7.00;;;;;8.28;82.37;100089.44;5012458;28;45668;-77
2021/11/04 06:47:47;;;;;;;;;14.00;11.50;;;;;8.30;82.36;100083.22;5010767;27;46324;-75
2021/11/04 06:50:15;;;;;;;;;14.25;13.50;;;;;8.31;82.41;100071.00;5007971;28;45949;-76
2021/11/04 06:53:08;;;;;;;;;14.50;13.25;;;;;8.25;81.94;100061.81;5010528;28;45913;-77
2021/11/04 06:55:36;;;;;;;;;17.50;13.00;;;;;8.44;82.15;100090.06;5011200;28;46522;-75
2021/11/04 06:58:03;;;;;;;;;13.00;11.00;;;;;8.46;82.16;100090.81;5008623;28;46615;-75
2021/11/04 07:00:30;;;;;;;;;12.00;11.00;;;;;8.52;82.09;100097.38;5010519;27;45930;-76
2021/11/04 07:03:07;;;;;;;;;16.00;11.00;;;;;8.53;81.89;100097.25;5002142;28;45851;-76
2021/11/04 07:05:33;;;;;;;;;11.25;9.25;;;;;8.55;81.95;100103.19;5009501;28;46437;-74
2021/11/04 07:08:01;;;;;;;;;15.75;13.25;;;;;8.56;82.18;100104.88;5008866;28;47143;-75
2021/11/04 07:10:26;;;;;;;;;13.50;11.00;;;;;8.59;82.05;100096.81;5050946;27;45889;-76
2021/11/04 07:12:52;;;;;;;;;11.00;10.00;;;;;8.61;81.79;100105.38;5009349;28;46014;-74
2021/11/04 07:15:20;;;;;;;;;10.00;9.75;;;;;8.67;81.83;100119.78;5009334;28;46268;-75
2021/11/04 07:17:46;;;;;;;;;6.75;5.50;;;;;8.66;82.06;100110.28;5005872;27;45969;-77
2021/11/04 07:20:15;;;;;;;;;12.25;11.75;;;;;8.68;82.14;100116.22;5004224;28;46669;-75
2021/11/04 07:22:54;;;;;;;;;13.75;11.50;;;;;8.70;82.17;100122.16;5004869;28;45875;-78
2021/11/04 07:25:24;;;;;;;;;12.75;9.75;;;;;8.70;82.09;100128.22;5008517;28;46610;-77
2021/11/04 07:27:53;;;;;;;;;10.75;10.75;;;;;8.72;82.11;100131.56;5008594;28;45506;-76
2021/11/04 07:30:20;;;;;;;;;12.25;11.00;;;;;8.72;82.24;100139.41;5008529;28;45693;-79
2021/11/04 07:32:53;;;;;;;;;10.25;10.00;;;;;8.78;82.19;100141.56;5011964;27;45893;-74
2021/11/04 07:35:23;;;;;;;;;5.00;2.00;;;;;8.76;81.96;100127.78;5030432;27;45730;-75
2021/11/04 07:37:48;;;;;;;;;12.75;10.50;;;;;8.80;81.61;100131.84;5008584;27;46665;-77
2021/11/04 07:40:18;;;;;;;;;10.25;9.00;;;;;8.92;81.76;100161.47;5007249;28;46071;-74
2021/11/04 07:42:43;;;;;;;;;11.25;11.25;;;;;8.93;81.88;100163.16;5007438;28;45621;-75
2021/11/04 07:45:10;;;;;;;;;10.75;10.75;;;;;8.87;81.82;100158.38;5008176;28;46230;-76
2021/11/04 07:47:37;;;;;;;;;11.25;10.75;;;;;8.96;81.60;100178.59;5001233;27;46736;-79
2021/11/04 07:50:04;;;;;;;;;11.00;10.00;;;;;8.97;81.82;100182.03;5003438;28;45674;-74
2021/11/04 07:52:30;;;;;;;;;10.25;9.25;;;;;9.00;81.70;100184.47;5000318;28;45676;-73
2021/11/04 07:54:55;;;;;;;;;12.00;10.00;;;;;9.00;81.62;100182.69;5001755;28;45767;-74
2021/11/04 07:57:21;;;;;;;;;6.00;5.75;;;;;9.08;81.55;100182.94;5008472;28;45841;-74
2021/11/04 07:59:46;;;;;;;;;12.25;10.00;;;;;9.07;81.49;100176.06;5010183;28;45725;-75
2021/11/04 08:02:11;;;;;;;;;7.25;7.00;;;;;9.08;81.43;100182.94;5006581;28;45842;-74
2021/11/04 08:04:37;;;;;;;;;11.75;10.00;;;;;9.15;81.42;100193.81;5004756;27;46524;-75
2021/11/04 08:07:02;;;;;;;;;10.50;7.25;;;;;9.10;81.24;100180.25;5005444;28;46331;-75
2021/11/04 08:09:28;;;;;;;;;11.00;10.00;;;;;9.21;80.88;100196.81;4999470;27;46189;-74
2021/11/04 08:11:54;;;;;;;;;11.00;9.50;;;;;9.24;81.19;100193.13;5006047;27;47393;-74
2021/11/04 08:14:19;;;;;;;;;10.00;8.50;;;;;9.28;81.11;100195.41;5003156;28;47113;-75
2021/11/04 08:16:44;;;;;;;;;10.50;8.50;;;;;9.29;81.17;100183.19;5004800;27;46236;-75
2021/11/04 08:19:10;;;;;;;;;9.50;7.75;;;;;9.35;80.72;100195.81;5001248;28;46057;-76
2021/11/04 08:21:35;;;;;;;;;12.00;9.50;;;;;9.37;80.82;100203.53;5002748;28;45616;-80
2021/11/04 08:24:00;;;;;;;;;7.50;6.25;;;;;9.41;80.80;100200.59;5004712;28;47215;-78
2021/11/04 08:26:26;;;;;;;;;9.50;8.00;;;;;9.43;80.81;100203.09;4999658;28;47028;-80
2021/11/04 08:28:55;;;;;;;;;12.75;9.75;;;;;9.44;80.48;100215.25;5002365;28;46057;-77
2021/11/04 08:31:21;;;;;;;;;7.50;7.00;;;;;9.43;80.51;100208.34;5008276;28;45900;-80
2021/11/04 08:33:46;;;;;;;;;4.75;4.75;;;;;9.49;80.59;100219.19;5003095;28;46892;-78
2021/11/04 08:36:11;;;;;;;;;7.00;6.00;;;;;9.50;80.11;100217.41;5007439;28;46889;-74
2021/11/04 08:38:37;;;;;;;;;10.25;7.50;;;;;9.50;80.27;100218.22;5000573;28;46226;-77
2021/11/04 08:41:02;;;;;;;;;6.00;6.00;;;;;9.58;80.22;100225.50;5004929;28;46177;-77
2021/11/04 08:43:28;;;;;;;;;7.25;7.00;;;;;9.64;79.98;100231.13;5005404;28;46200;-86
2021/11/04 08:45:53;;;;;;;;;7.00;6.00;;;;;9.63;79.77;100231.25;5017941;28;48364;-78
2021/11/04 08:48:20;;;;;;;;;7.75;7.00;;;;;9.68;79.69;100244.81;4998226;28;45781;-76
2021/11/04 08:50:47;;;;;;;;;8.00;6.25;;;;;9.71;79.48;100249.84;5006183;28;46031;-77
2021/11/04 08:53:12;;;;;;;;;6.00;5.00;;;;;9.62;79.16;100243.47;5006901;28;47659;-78
2021/11/04 08:55:38;;;;;;;;;8.50;5.50;;;;;9.71;79.18;100251.63;5005479;28;46118;-76
2021/11/04 08:58:03;;;;;;;;;6.00;5.00;;;;;9.73;79.33;100253.16;5003519;28;45737;-75
2021/11/04 09:00:29;;;;;;;;;8.00;6.00;;;;;9.72;78.90;100246.25;5006140;28;46260;-77
2021/11/04 09:02:54;;;;;;;;;7.50;5.75;;;;;9.67;79.18;100249.22;5007519;28;45877;-79
2021/11/04 09:05:20;;;;;;;;;3.00;2.75;;;;;9.73;78.72;100252.31;5004610;28;46154;-75
2021/11/04 09:07:47;;;;;;;;;5.50;5.50;;;;;9.78;78.46;100256.28;5020696;27;45964;-81
2021/11/04 09:10:14;;;;;;;;;5.50;5.00;;;;;9.82;78.94;100262.97;5004777;28;45856;-80
2021/11/04 09:12:41;;;;;;;;;6.75;6.50;;;;;9.84;78.82;100261.06;5001189;28;46732;-75
2021/11/04 09:15:10;;;;;;;;;6.00;5.50;;;;;9.82;78.56;100260.34;5001574;28;46519;-79
2021/11/04 09:17:35;;;;;;;;;8.50;7.00;;;;;9.96;78.65;100268.00;5004229;27;45653;-78
2021/11/04 09:20:01;;;;;;;;;7.75;6.00;;;;;10.02;78.34;100269.34;5006004;28;45882;-75
2021/11/04 09:22:26;;;;;;;;;6.50;5.00;;;;;10.09;78.00;100268.75;5008369;27;45729;-74
2021/11/04 09:24:53;;;;;;;;;6.00;5.75;;;;;10.10;78.06;100269.59;5011130;27;46464;-73
2021/11/04 09:27:18;;;;;;;;;5.00;4.25;;;;;10.16;77.83;100274.41;5009419;28;45997;-76
2021/11/04 09:29:45;;;;;;;;;6.50;6.00;;;;;10.15;77.88;100262.22;5009605;28;45920;-74
2021/11/04 09:32:12;;;;;;;;;4.75;4.75;;;;;10.32;77.75;100284.56;5009603;27;47680;-75
2021/11/04 09:34:39;;;;;;;;;4.75;4.75;;;;;10.40;77.78;100287.44;5004448;28;47019;-77
2021/11/04 09:37:07;;;;;;;;;6.50;4.25;;;;;10.44;77.11;100287.09;5005091;28;47058;-77
2021/11/04 09:39:34;;;;;;;;;5.00;3.75;;;;;10.46;76.71;100287.00;5006212;28;45768;-75
2021/11/04 09:42:02;;;;;;;;;2.25;2.25;;;;;10.47;76.95;100289.47;4999913;28;47435;-76
2021/11/04 09:44:28;;;;;;;;;3.00;3.00;;;;;10.44;76.68;100281.84;5005918;27;46272;-75
2021/11/04 09:46:54;;;;;;;;;3.00;2.00;;;;;10.50;76.14;100301.50;5006453;28;46049;-76
2021/11/04 09:49:19;;;;;;;;;2.00;1.25;;;;;10.45;75.69;100293.16;5007646;28;46046;-78
2021/11/04 09:51:45;;;;;;;;;4.00;1.75;;;;;10.42;75.78;100288.97;5008682;27;45757;-77
2021/11/04 09:54:11;;;;;;;;;3.00;2.00;;;;;10.43;75.45;100302.91;5004584;28;45718;-78
2021/11/04 09:56:37;;;;;;;;;2.00;2.00;;;;;10.28;75.78;100283.13;5024739;28;46144;-75
2021/11/04 09:59:03;;;;;;;;;1.75;1.75;;;;;10.43;75.60;100316.84;5010733;27;46151;-77
2021/11/04 10:01:32;;;;;;;;;0.25;0.25;;;;;10.38;75.61;100303.28;5006182;27;46953;-78
2021/11/04 10:04:00;;;;;;;;;6.00;3.75;;;;;10.40;75.38;100297.94;5008630;28;46121;-76
2021/11/04 10:06:27;;;;;;;;;3.00;3.00;;;;;10.45;75.24;100312.34;5008161;28;45722;-78
2021/11/04 10:08:55;;;;;;;;;3.00;2.00;;;;;10.43;75.18;100316.84;5009388;28;45833;-76
2021/11/04 10:11:26;;;;;;;;;2.25;2.00;;;;;10.39;75.20;100307.56;5009042;28;46305;-78
2021/11/04 10:13:58;;;;;;;;;3.25;3.00;;;;;10.46;75.23;100324.50;5011911;28;47065;-76
2021/11/04 10:16:26;;;;;;;;;5.00;3.00;;;;;10.18;75.14;100290.84;5010044;27;45861;-77
2021/11/04 10:18:52;;;;;;;;;4.25;3.00;;;;;10.46;75.05;100311.41;5008863;28;45794;-75
2021/11/04 10:21:25;;;;;;;;;3.00;2.25;;;;;10.57;74.90;100317.59;5002275;28;46426;-73
2021/11/04 10:23:51;;;;;;;;;3.00;3.00;;;;;10.64;74.48;100318.78;5009788;28;46313;-74
2021/11/04 10:26:27;;;;;;;;;3.00;3.00;;;;;10.69;74.42;100321.94;5005209;28;45913;-74
2021/11/04 10:29:10;;;;;;;;;3.00;2.50;;;;;10.67;74.36;100314.19;5003945;28;45784;-74
2021/11/04 10:31:41;;;;;;;;;3.00;3.00;;;;;10.79;74.11;100333.38;5009321;28;46244;-73
2021/11/04 10:34:15;;;;;;;;;2.50;2.00;;;;;10.79;73.42;100321.09;4995999;28;46241;-74
2021/11/04 10:36:45;;;;;;;;;3.00;3.00;;;;;10.84;73.75;100328.59;5010923;28;45795;-76
2021/11/04 10:39:12;;;;;;;;;2.25;2.00;;;;;10.89;74.07;100324.69;5010227;28;46118;-75
2021/11/04 10:41:40;;;;;;;;;2.75;2.00;;;;;11.00;73.67;100338.75;5010064;28;46589;-76
2021/11/04 10:44:12;;;;;;;;;3.00;2.00;;;;;11.08;73.50;100336.34;5010767;27;46530;-73
2021/11/04 10:46:44;;;;;;;;;3.25;2.25;;;;;11.14;73.43;100330.63;5011508;28;45965;-74
2021/11/04 10:49:10;;;;;;;;;3.75;3.00;;;;;11.22;73.06;100338.75;5010060;28;45688;-73
2021/11/04 10:51:36;;;;;;;;;1.00;1.00;;;;;11.27;72.93;100326.13;5010459;28;46625;-75
2021/11/04 10:54:10;;;;;;;;;2.25;2.00;;;;;11.29;72.59;100327.66;5010397;28;46128;-74
2021/11/04 10:56:39;;;;;;;;;2.25;2.00;;;;;11.40;72.30;100339.06;5010004;28;45714;-77
2021/11/04 10:59:12;;;;;;;;;5.00;2.00;;;;;11.45;71.85;100343.00;5010947;28;45927;-73
2021/11/04 11:01:42;;;;;;;;;2.00;2.00;;;;;11.49;70.53;100341.00;5011333;28;46485;-74
2021/11/04 11:04:15;;;;;;;;;3.00;2.00;;;;;11.46;70.64;100336.81;5041310;27;45925;-73
2021/11/04 11:06:52;;;;;;;;;1.00;1.00;;;;;11.45;70.55;100332.50;5029937;27;45887;-77
2021/11/04 11:09:21;;;;;;;;;2.00;1.00;;;;;11.53;70.45;100340.63;5012915;28;46651;-80
2021/11/04 11:11:49;;;;;;;;;3.00;2.00;;;;;11.52;70.59;100336.34;5013248;28;47038;-77
2021/11/04 11:14:17;;;;;;;;;2.00;2.00;;;;;11.56;70.03;100343.00;5013154;28;45714;-75
2021/11/04 11:16:58;;;;;;;;;2.50;2.00;;;;;11.61;70.21;100361.81;5011412;27;46969;-77
2021/11/04 11:19:26;;;;;;;;;4.00;2.00;;;;;11.63;70.23;100354.69;5011951;28;45602;-73
2021/11/04 11:21:52;;;;;;;;;1.75;1.75;;;;;11.61;69.92;100353.97;5014070;28;47735;-80
2021/11/04 11:24:37;;;;;;;;;2.00;2.00;;;;;11.61;69.73;100366.25;5014546;28;45771;-78
2021/11/04 11:27:06;;;;;;;;;3.00;2.00;;;;;11.54;69.62;100372.94;5013182;28;45556;-77
2021/11/04 11:29:34;;;;;;;;;1.00;1.00;;;;;11.50;68.72;100406.44;5014009;28;45795;-76
2021/11/04 11:31:59;;;;;;;;;2.00;1.75;;;;;11.39;69.46;100361.84;5014474;28;46601;-77
2021/11/04 11:34:32;;;;;;;;;3.00;2.75;;;;;11.45;69.38;100373.66;5012983;28;47167;-75
2021/11/04 11:37:16;;;;;;;;;1.25;1.25;;;;;11.45;69.48;100371.88;5014894;28;45708;-82
2021/11/04 11:39:48;;;;;;;;;2.00;2.00;;;;;11.48;69.48;100376.06;5014255;28;46262;-81
2021/11/04 11:42:25;;;;;;;;;2.25;2.00;;;;;11.54;69.54;100381.66;5017932;28;46203;-79
2021/11/04 11:44:50;;;;;;;;;3.00;2.00;;;;;11.55;69.59;100393.78;5017013;27;46094;-80
2021/11/04 11:47:18;;;;;;;;;1.25;1.25;;;;;11.59;68.91;100386.53;5015258;28;45756;-80
2021/11/04 11:49:46;;;;;;;;;2.00;2.00;;;;;11.54;68.72;100375.56;5014023;28;45738;-76
2021/11/04 11:52:49;;;;;;;;;1.25;1.00;;;;;11.67;68.47;100386.75;5013467;27;48637;-83
2021/11/04 11:55:33;;;;;;;;;0.50;0.50;;;;;11.70;68.58;100392.63;5014767;28;46766;-81